sensor_id;sensor_type;location;lat;lon;timestamp;P1;durP1;ratioP1;P2;durP2;ratioP2
1935;SDS011;969;49.892;10.896;2023-06-22T00:00:57;12.40;;;11.30;;
1935;SDS011;969;49.892;10.896;2023-06-22T00:03:23;12.73;;;11.63;;
1935;SDS011;969;49.892;10.896;2023-06-22T00:05:50;11.37;;;10.37;;
1935;SDS011;969;49.892;10.896;2023-06-22T00:08:17;11.90;;;10.80;;
1935;SDS011;969;49.892;10.896;2023-06-22T00:10:44;10.93;;;10.03;;
1935;SDS011;969;49.892;10.896;2023-06-22T00:13:10;11.30;;;10.00;;
1935;SDS011;969;49.892;10.896;2023-06-22T00:15:37;11.80;;;10.60;;
1935;SDS011;969;49.892;10.896;2023-06-22T00:18:06;13.97;;;10.03;;
1935;SDS011;969;49.892;10.896;2023-06-22T00:20:32;11.03;;;10.13;;
1935;SDS011;969;49.892;10.896;2023-06-22T00:22:58;12.23;;;11.13;;
1935;SDS011;969;49.892;10.896;2023-06-22T00:25:24;11.80;;;10.73;;
1935;SDS011;969;49.892;10.896;2023-06-22T00:27:50;13.30;;;10.30;;
1935;SDS011;969;49.892;10.896;2023-06-22T00:30:16;10.90;;;9.90;;
1935;SDS011;969;49.892;10.896;2023-06-22T00:32:43;12.23;;;10.60;;
1935;SDS011;969;49.892;10.896;2023-06-22T00:35:09;11.07;;;10.10;;
1935;SDS011;969;49.892;10.896;2023-06-22T00:37:37;10.97;;;10.07;;
1935;SDS011;969;49.892;10.896;2023-06-22T00:40:03;12.20;;;11.00;;
1935;SDS011;969;49.892;10.896;2023-06-22T00:42:30;10.60;;;9.73;;
1935;SDS011;969;49.892;10.896;2023-06-22T00:44:55;11.53;;;10.53;;
1935;SDS011;969;49.892;10.896;2023-06-22T00:47:21;12.53;;;10.13;;
1935;SDS011;969;49.892;10.896;2023-06-22T00:49:48;11.70;;;10.60;;
1935;SDS011;969;49.892;10.896;2023-06-22T00:52:16;13.13;;;11.20;;
1935;SDS011;969;49.892;10.896;2023-06-22T00:54:45;12.43;;;10.10;;
1935;SDS011;969;49.892;10.896;2023-06-22T00:57:15;11.87;;;10.80;;
1935;SDS011;969;49.892;10.896;2023-06-22T00:59:43;11.03;;;9.93;;
1935;SDS011;969;49.892;10.896;2023-06-22T01:02:09;11.57;;;10.47;;
1935;SDS011;969;49.892;10.896;2023-06-22T01:04:36;11.37;;;10.47;;
1935;SDS011;969;49.892;10.896;2023-06-22T01:07:10;11.50;;;10.50;;
1935;SDS011;969;49.892;10.896;2023-06-22T01:10:07;11.80;;;10.70;;
1935;SDS011;969;49.892;10.896;2023-06-22T01:12:42;10.93;;;10.03;;
1935;SDS011;969;49.892;10.896;2023-06-22T01:17:52;11.77;;;10.57;;
1935;SDS011;969;49.892;10.896;2023-06-22T01:20:21;11.17;;;10.27;;
1935;SDS011;969;49.892;10.896;2023-06-22T01:26:19;10.43;;;9.53;;
1935;SDS011;969;49.892;10.896;2023-06-22T01:28:53;11.07;;;10.13;;
1935;SDS011;969;49.892;10.896;2023-06-22T01:31:25;11.47;;;10.40;;
1935;SDS011;969;49.892;10.896;2023-06-22T01:33:55;10.93;;;9.93;;
1935;SDS011;969;49.892;10.896;2023-06-22T01:36:24;11.20;;;10.20;;
1935;SDS011;969;49.892;10.896;2023-06-22T01:38:51;14.20;;;10.53;;
1935;SDS011;969;49.892;10.896;2023-06-22T01:41:19;11.67;;;10.57;;
1935;SDS011;969;49.892;10.896;2023-06-22T01:43:45;11.40;;;10.30;;
1935;SDS011;969;49.892;10.896;2023-06-22T01:46:12;11.03;;;10.10;;
1935;SDS011;969;49.892;10.896;2023-06-22T01:48:39;11.10;;;10.00;;
1935;SDS011;969;49.892;10.896;2023-06-22T01:51:05;10.70;;;9.80;;
1935;SDS011;969;49.892;10.896;2023-06-22T01:53:31;12.00;;;10.80;;
1935;SDS011;969;49.892;10.896;2023-06-22T01:55:57;10.53;;;9.60;;
1935;SDS011;969;49.892;10.896;2023-06-22T01:58:23;11.70;;;10.60;;
1935;SDS011;969;49.892;10.896;2023-06-22T02:01:09;11.40;;;10.30;;
1935;SDS011;969;49.892;10.896;2023-06-22T02:03:43;10.63;;;9.63;;
1935;SDS011;969;49.892;10.896;2023-06-22T02:06:14;11.30;;;10.20;;
1935;SDS011;969;49.892;10.896;2023-06-22T02:08:48;11.70;;;10.70;;
1935;SDS011;969;49.892;10.896;2023-06-22T02:11:18;12.87;;;11.67;;
1935;SDS011;969;49.892;10.896;2023-06-22T02:13:46;11.77;;;10.63;;
1935;SDS011;969;49.892;10.896;2023-06-22T02:16:13;12.60;;;11.30;;
1935;SDS011;969;49.892;10.896;2023-06-22T02:18:47;11.23;;;10.30;;
1935;SDS011;969;49.892;10.896;2023-06-22T02:21:15;11.93;;;10.83;;
1935;SDS011;969;49.892;10.896;2023-06-22T02:23:42;11.57;;;10.50;;
1935;SDS011;969;49.892;10.896;2023-06-22T02:26:07;11.80;;;10.80;;
1935;SDS011;969;49.892;10.896;2023-06-22T02:28:33;12.00;;;10.90;;
1935;SDS011;969;49.892;10.896;2023-06-22T02:30:59;11.60;;;10.40;;
1935;SDS011;969;49.892;10.896;2023-06-22T02:33:24;10.80;;;9.90;;
1935;SDS011;969;49.892;10.896;2023-06-22T02:35:50;11.37;;;10.47;;
1935;SDS011;969;49.892;10.896;2023-06-22T02:38:15;12.03;;;10.90;;
1935;SDS011;969;49.892;10.896;2023-06-22T02:40:42;12.77;;;11.10;;
1935;SDS011;969;49.892;10.896;2023-06-22T02:43:08;12.30;;;11.10;;
1935;SDS011;969;49.892;10.896;2023-06-22T02:45:33;12.87;;;11.57;;
1935;SDS011;969;49.892;10.896;2023-06-22T02:47:59;13.37;;;12.10;;
1935;SDS011;969;49.892;10.896;2023-06-22T02:50:24;13.17;;;11.10;;
1935;SDS011;969;49.892;10.896;2023-06-22T02:52:50;12.70;;;11.50;;
1935;SDS011;969;49.892;10.896;2023-06-22T02:55:16;12.50;;;11.30;;
1935;SDS011;969;49.892;10.896;2023-06-22T02:57:41;12.93;;;11.83;;
1935;SDS011;969;49.892;10.896;2023-06-22T03:00:09;12.90;;;11.50;;
1935;SDS011;969;49.892;10.896;2023-06-22T03:02:47;15.33;;;11.60;;
1935;SDS011;969;49.892;10.896;2023-06-22T03:05:14;13.50;;;12.23;;
1935;SDS011;969;49.892;10.896;2023-06-22T03:07:46;11.80;;;10.70;;
1935;SDS011;969;49.892;10.896;2023-06-22T03:10:12;13.00;;;11.80;;
1935;SDS011;969;49.892;10.896;2023-06-22T03:12:38;13.57;;;11.50;;
1935;SDS011;969;49.892;10.896;2023-06-22T03:15:05;11.10;;;10.00;;
1935;SDS011;969;49.892;10.896;2023-06-22T03:17:31;11.73;;;10.73;;
1935;SDS011;969;49.892;10.896;2023-06-22T03:19:58;12.30;;;11.30;;
1935;SDS011;969;49.892;10.896;2023-06-22T03:22:23;12.47;;;11.37;;
1935;SDS011;969;49.892;10.896;2023-06-22T03:24:49;11.80;;;10.80;;
1935;SDS011;969;49.892;10.896;2023-06-22T03:27:14;12.47;;;11.37;;
1935;SDS011;969;49.892;10.896;2023-06-22T03:29:40;12.90;;;11.60;;
1935;SDS011;969;49.892;10.896;2023-06-22T03:32:06;12.60;;;11.50;;
1935;SDS011;969;49.892;10.896;2023-06-22T03:34:31;12.37;;;11.33;;
1935;SDS011;969;49.892;10.896;2023-06-22T03:37:03;11.70;;;10.50;;
1935;SDS011;969;49.892;10.896;2023-06-22T03:39:29;12.00;;;10.80;;
1935;SDS011;969;49.892;10.896;2023-06-22T03:41:55;12.67;;;11.57;;
1935;SDS011;969;49.892;10.896;2023-06-22T03:44:20;12.80;;;11.60;;
1935;SDS011;969;49.892;10.896;2023-06-22T03:46:46;12.27;;;10.60;;
1935;SDS011;969;49.892;10.896;2023-06-22T03:49:11;12.13;;;11.00;;
1935;SDS011;969;49.892;10.896;2023-06-22T03:51:37;12.27;;;11.17;;
1935;SDS011;969;49.892;10.896;2023-06-22T03:54:03;12.60;;;11.40;;
1935;SDS011;969;49.892;10.896;2023-06-22T03:56:28;12.90;;;11.20;;
1935;SDS011;969;49.892;10.896;2023-06-22T03:58:54;13.07;;;11.60;;
1935;SDS011;969;49.892;10.896;2023-06-22T04:01:19;12.33;;;11.00;;
1935;SDS011;969;49.892;10.896;2023-06-22T04:03:45;12.10;;;11.10;;
1935;SDS011;969;49.892;10.896;2023-06-22T04:06:13;14.00;;;11.60;;
1935;SDS011;969;49.892;10.896;2023-06-22T04:08:38;12.37;;;11.17;;
1935;SDS011;969;49.892;10.896;2023-06-22T04:11:04;12.90;;;11.80;;
1935;SDS011;969;49.892;10.896;2023-06-22T04:13:30;13.33;;;12.00;;
1935;SDS011;969;49.892;10.896;2023-06-22T04:15:55;12.60;;;11.50;;
1935;SDS011;969;49.892;10.896;2023-06-22T04:18:21;11.93;;;10.83;;
1935;SDS011;969;49.892;10.896;2023-06-22T04:20:47;11.17;;;10.23;;
1935;SDS011;969;49.892;10.896;2023-06-22T04:23:12;12.47;;;11.30;;
1935;SDS011;969;49.892;10.896;2023-06-22T04:25:39;12.43;;;11.23;;
1935;SDS011;969;49.892;10.896;2023-06-22T04:28:04;12.47;;;11.43;;
1935;SDS011;969;49.892;10.896;2023-06-22T04:30:30;11.93;;;10.83;;
1935;SDS011;969;49.892;10.896;2023-06-22T04:32:57;12.40;;;11.20;;
1935;SDS011;969;49.892;10.896;2023-06-22T04:35:23;13.97;;;11.37;;
1935;SDS011;969;49.892;10.896;2023-06-22T04:37:49;12.50;;;11.43;;
1935;SDS011;969;49.892;10.896;2023-06-22T04:40:15;13.17;;;11.87;;
1935;SDS011;969;49.892;10.896;2023-06-22T04:42:41;11.93;;;10.73;;
1935;SDS011;969;49.892;10.896;2023-06-22T04:45:17;10.90;;;10.00;;
1935;SDS011;969;49.892;10.896;2023-06-22T04:47:42;11.07;;;10.07;;
1935;SDS011;969;49.892;10.896;2023-06-22T04:50:12;11.60;;;10.50;;
1935;SDS011;969;49.892;10.896;2023-06-22T04:52:37;10.93;;;10.00;;
1935;SDS011;969;49.892;10.896;2023-06-22T04:55:04;12.20;;;11.10;;
1935;SDS011;969;49.892;10.896;2023-06-22T04:57:30;12.47;;;11.37;;
1935;SDS011;969;49.892;10.896;2023-06-22T04:59:57;11.97;;;10.63;;
1935;SDS011;969;49.892;10.896;2023-06-22T05:02:36;12.83;;;10.77;;
1935;SDS011;969;49.892;10.896;2023-06-22T05:05:02;11.70;;;10.70;;
1935;SDS011;969;49.892;10.896;2023-06-22T05:07:36;12.27;;;11.17;;
1935;SDS011;969;49.892;10.896;2023-06-22T05:10:02;11.97;;;10.57;;
1935;SDS011;969;49.892;10.896;2023-06-22T05:12:29;11.83;;;10.73;;
1935;SDS011;969;49.892;10.896;2023-06-22T05:14:55;10.87;;;9.87;;
1935;SDS011;969;49.892;10.896;2023-06-22T05:17:21;16.33;;;12.10;;
1935;SDS011;969;49.892;10.896;2023-06-22T05:19:46;11.10;;;10.10;;
1935;SDS011;969;49.892;10.896;2023-06-22T05:22:15;12.53;;;11.43;;
1935;SDS011;969;49.892;10.896;2023-06-22T05:24:41;10.90;;;10.00;;
1935;SDS011;969;49.892;10.896;2023-06-22T05:27:07;11.13;;;10.17;;
1935;SDS011;969;49.892;10.896;2023-06-22T05:29:33;9.57;;;8.77;;
1935;SDS011;969;49.892;10.896;2023-06-22T05:31:59;12.77;;;11.40;;
1935;SDS011;969;49.892;10.896;2023-06-22T05:34:24;11.20;;;10.20;;
1935;SDS011;969;49.892;10.896;2023-06-22T05:36:50;10.33;;;9.43;;
1935;SDS011;969;49.892;10.896;2023-06-22T05:39:16;10.77;;;9.67;;
1935;SDS011;969;49.892;10.896;2023-06-22T05:41:42;10.80;;;9.80;;
1935;SDS011;969;49.892;10.896;2023-06-22T05:44:09;11.80;;;10.70;;
1935;SDS011;969;49.892;10.896;2023-06-22T05:46:35;11.70;;;10.70;;
1935;SDS011;969;49.892;10.896;2023-06-22T05:49:00;10.20;;;9.30;;
1935;SDS011;969;49.892;10.896;2023-06-22T05:51:26;11.60;;;9.60;;
1935;SDS011;969;49.892;10.896;2023-06-22T05:53:51;11.17;;;10.17;;
1935;SDS011;969;49.892;10.896;2023-06-22T05:56:17;10.83;;;9.80;;
1935;SDS011;969;49.892;10.896;2023-06-22T05:58:43;10.20;;;9.40;;
1935;SDS011;969;49.892;10.896;2023-06-22T06:01:09;12.80;;;11.60;;
1935;SDS011;969;49.892;10.896;2023-06-22T06:03:34;10.50;;;9.60;;
1935;SDS011;969;49.892;10.896;2023-06-22T06:06:06;10.37;;;9.47;;
1935;SDS011;969;49.892;10.896;2023-06-22T06:08:32;11.03;;;10.03;;
1935;SDS011;969;49.892;10.896;2023-06-22T06:10:57;11.63;;;10.73;;
1935;SDS011;969;49.892;10.896;2023-06-22T06:13:23;11.53;;;10.43;;
1935;SDS011;969;49.892;10.896;2023-06-22T06:15:49;10.63;;;9.73;;
1935;SDS011;969;49.892;10.896;2023-06-22T06:18:20;11.30;;;8.77;;
1935;SDS011;969;49.892;10.896;2023-06-22T06:20:45;11.53;;;10.43;;
1935;SDS011;969;49.892;10.896;2023-06-22T06:23:11;12.33;;;11.13;;
1935;SDS011;969;49.892;10.896;2023-06-22T06:25:37;11.07;;;10.10;;
1935;SDS011;969;49.892;10.896;2023-06-22T06:28:02;10.23;;;9.33;;
1935;SDS011;969;49.892;10.896;2023-06-22T06:30:28;11.63;;;10.00;;
1935;SDS011;969;49.892;10.896;2023-06-22T06:32:54;12.53;;;11.43;;
1935;SDS011;969;49.892;10.896;2023-06-22T06:35:20;11.50;;;10.50;;
1935;SDS011;969;49.892;10.896;2023-06-22T06:37:48;11.07;;;10.00;;
1935;SDS011;969;49.892;10.896;2023-06-22T06:40:15;10.93;;;9.93;;
1935;SDS011;969;49.892;10.896;2023-06-22T06:42:45;11.90;;;10.90;;
1935;SDS011;969;49.892;10.896;2023-06-22T06:45:14;12.20;;;11.10;;
1935;SDS011;969;49.892;10.896;2023-06-22T06:47:43;11.27;;;10.30;;
1935;SDS011;969;49.892;10.896;2023-06-22T06:50:08;11.40;;;10.30;;
1935;SDS011;969;49.892;10.896;2023-06-22T06:52:35;10.97;;;9.97;;
1935;SDS011;969;49.892;10.896;2023-06-22T06:55:01;10.70;;;9.80;;
1935;SDS011;969;49.892;10.896;2023-06-22T06:57:30;10.13;;;9.33;;
1935;SDS011;969;49.892;10.896;2023-06-22T06:59:56;10.70;;;9.70;;
1935;SDS011;969;49.892;10.896;2023-06-22T07:02:22;9.70;;;8.90;;
1935;SDS011;969;49.892;10.896;2023-06-22T07:04:48;9.80;;;9.00;;
1935;SDS011;969;49.892;10.896;2023-06-22T07:07:14;10.90;;;9.80;;
1935;SDS011;969;49.892;10.896;2023-06-22T07:09:40;9.33;;;8.53;;
1935;SDS011;969;49.892;10.896;2023-06-22T07:12:06;13.07;;;9.33;;
1935;SDS011;969;49.892;10.896;2023-06-22T07:14:32;10.10;;;9.07;;
1935;SDS011;969;49.892;10.896;2023-06-22T07:16:58;10.10;;;9.13;;
1935;SDS011;969;49.892;10.896;2023-06-22T07:19:24;9.90;;;9.00;;
1935;SDS011;969;49.892;10.896;2023-06-22T07:21:51;9.80;;;9.00;;
1935;SDS011;969;49.892;10.896;2023-06-22T07:24:18;10.30;;;9.30;;
1935;SDS011;969;49.892;10.896;2023-06-22T07:26:44;9.50;;;8.70;;
1935;SDS011;969;49.892;10.896;2023-06-22T07:29:11;8.80;;;8.00;;
1935;SDS011;969;49.892;10.896;2023-06-22T07:31:37;8.43;;;7.73;;
1935;SDS011;969;49.892;10.896;2023-06-22T07:34:02;10.13;;;9.13;;
1935;SDS011;969;49.892;10.896;2023-06-22T07:36:29;9.87;;;9.07;;
1935;SDS011;969;49.892;10.896;2023-06-22T07:38:55;8.67;;;7.90;;
1935;SDS011;969;49.892;10.896;2023-06-22T07:41:20;8.77;;;7.87;;
1935;SDS011;969;49.892;10.896;2023-06-22T07:43:46;8.43;;;7.67;;
1935;SDS011;969;49.892;10.896;2023-06-22T07:46:12;8.57;;;7.87;;
1935;SDS011;969;49.892;10.896;2023-06-22T07:48:38;10.97;;;9.83;;
1935;SDS011;969;49.892;10.896;2023-06-22T07:51:04;8.70;;;7.90;;
1935;SDS011;969;49.892;10.896;2023-06-22T07:53:31;8.37;;;7.57;;
1935;SDS011;969;49.892;10.896;2023-06-22T07:55:56;7.60;;;7.00;;
1935;SDS011;969;49.892;10.896;2023-06-22T07:58:22;8.70;;;8.00;;
1935;SDS011;969;49.892;10.896;2023-06-22T08:00:47;7.70;;;7.00;;
1935;SDS011;969;49.892;10.896;2023-06-22T08:03:14;7.97;;;7.27;;
1935;SDS011;969;49.892;10.896;2023-06-22T08:05:40;8.23;;;7.00;;
1935;SDS011;969;49.892;10.896;2023-06-22T08:08:05;8.60;;;7.90;;
1935;SDS011;969;49.892;10.896;2023-06-22T08:10:31;10.30;;;8.20;;
1935;SDS011;969;49.892;10.896;2023-06-22T08:12:56;11.10;;;8.40;;
1935;SDS011;969;49.892;10.896;2023-06-22T08:15:22;8.70;;;6.90;;
1935;SDS011;969;49.892;10.896;2023-06-22T08:17:48;8.50;;;7.70;;
1935;SDS011;969;49.892;10.896;2023-06-22T08:20:13;7.80;;;7.00;;
1935;SDS011;969;49.892;10.896;2023-06-22T08:22:39;8.20;;;7.40;;
1935;SDS011;969;49.892;10.896;2023-06-22T08:25:06;8.27;;;7.57;;
1935;SDS011;969;49.892;10.896;2023-06-22T08:27:32;9.60;;;8.03;;
1935;SDS011;969;49.892;10.896;2023-06-22T08:29:58;8.90;;;7.33;;
1935;SDS011;969;49.892;10.896;2023-06-22T08:32:25;8.53;;;7.77;;
1935;SDS011;969;49.892;10.896;2023-06-22T08:34:52;7.70;;;7.10;;
1935;SDS011;969;49.892;10.896;2023-06-22T08:37:19;8.83;;;8.10;;
1935;SDS011;969;49.892;10.896;2023-06-22T08:39:44;8.13;;;7.40;;
1935;SDS011;969;49.892;10.896;2023-06-22T08:42:11;8.87;;;7.83;;
1935;SDS011;969;49.892;10.896;2023-06-22T08:44:36;12.83;;;7.40;;
1935;SDS011;969;49.892;10.896;2023-06-22T08:47:02;7.73;;;7.03;;
1935;SDS011;969;49.892;10.896;2023-06-22T08:49:28;8.87;;;8.07;;
1935;SDS011;969;49.892;10.896;2023-06-22T08:51:54;7.80;;;7.10;;
1935;SDS011;969;49.892;10.896;2023-06-22T08:54:21;7.83;;;6.87;;
1935;SDS011;969;49.892;10.896;2023-06-22T08:56:47;7.53;;;6.93;;
1935;SDS011;969;49.892;10.896;2023-06-22T08:59:13;8.10;;;7.30;;
1935;SDS011;969;49.892;10.896;2023-06-22T09:01:38;7.40;;;6.70;;
1935;SDS011;969;49.892;10.896;2023-06-22T09:04:04;8.30;;;7.50;;
1935;SDS011;969;49.892;10.896;2023-06-22T09:06:31;7.73;;;7.03;;
1935;SDS011;969;49.892;10.896;2023-06-22T09:08:57;8.40;;;7.70;;
1935;SDS011;969;49.892;10.896;2023-06-22T09:11:24;7.10;;;6.50;;
1935;SDS011;969;49.892;10.896;2023-06-22T09:13:50;7.97;;;7.27;;
1935;SDS011;969;49.892;10.896;2023-06-22T09:16:17;6.97;;;6.20;;
1935;SDS011;969;49.892;10.896;2023-06-22T09:18:45;7.37;;;6.67;;
1935;SDS011;969;49.892;10.896;2023-06-22T09:21:12;7.37;;;6.67;;
1935;SDS011;969;49.892;10.896;2023-06-22T09:23:38;7.97;;;7.17;;
1935;SDS011;969;49.892;10.896;2023-06-22T09:26:03;7.33;;;6.73;;
1935;SDS011;969;49.892;10.896;2023-06-22T09:28:29;7.50;;;6.80;;
1935;SDS011;969;49.892;10.896;2023-06-22T09:30:54;7.40;;;6.63;;
1935;SDS011;969;49.892;10.896;2023-06-22T09:33:23;7.03;;;6.33;;
1935;SDS011;969;49.892;10.896;2023-06-22T09:35:49;6.87;;;6.27;;
1935;SDS011;969;49.892;10.896;2023-06-22T09:38:16;6.97;;;6.37;;
1935;SDS011;969;49.892;10.896;2023-06-22T09:40:41;7.20;;;6.50;;
1935;SDS011;969;49.892;10.896;2023-06-22T09:43:07;7.33;;;6.70;;
1935;SDS011;969;49.892;10.896;2023-06-22T09:45:33;7.77;;;7.00;;
1935;SDS011;969;49.892;10.896;2023-06-22T09:47:59;6.40;;;5.80;;
1935;SDS011;969;49.892;10.896;2023-06-22T09:50:24;6.27;;;5.77;;
1935;SDS011;969;49.892;10.896;2023-06-22T09:52:50;7.43;;;6.67;;
1935;SDS011;969;49.892;10.896;2023-06-22T09:55:19;6.03;;;5.43;;
1935;SDS011;969;49.892;10.896;2023-06-22T09:57:46;6.90;;;6.30;;
1935;SDS011;969;49.892;10.896;2023-06-22T10:00:12;6.57;;;5.97;;
1935;SDS011;969;49.892;10.896;2023-06-22T10:02:39;7.10;;;6.40;;
1935;SDS011;969;49.892;10.896;2023-06-22T10:05:06;6.47;;;5.93;;
1935;SDS011;969;49.892;10.896;2023-06-22T10:07:32;6.60;;;6.00;;
1935;SDS011;969;49.892;10.896;2023-06-22T10:09:58;7.23;;;6.30;;
1935;SDS011;969;49.892;10.896;2023-06-22T10:12:23;6.37;;;5.77;;
1935;SDS011;969;49.892;10.896;2023-06-22T10:14:50;7.53;;;6.83;;
1935;SDS011;969;49.892;10.896;2023-06-22T10:17:16;7.67;;;6.47;;
1935;SDS011;969;49.892;10.896;2023-06-22T10:19:41;6.90;;;6.30;;
1935;SDS011;969;49.892;10.896;2023-06-22T10:22:07;6.27;;;5.43;;
1935;SDS011;969;49.892;10.896;2023-06-22T10:24:32;5.90;;;5.30;;
1935;SDS011;969;49.892;10.896;2023-06-22T10:26:58;6.57;;;5.87;;
1935;SDS011;969;49.892;10.896;2023-06-22T10:29:24;7.10;;;6.40;;
1935;SDS011;969;49.892;10.896;2023-06-22T10:31:49;7.00;;;6.00;;
1935;SDS011;969;49.892;10.896;2023-06-22T10:34:15;6.73;;;6.20;;
1935;SDS011;969;49.892;10.896;2023-06-22T10:36:41;5.73;;;5.20;;
1935;SDS011;969;49.892;10.896;2023-06-22T10:39:06;5.83;;;5.33;;
1935;SDS011;969;49.892;10.896;2023-06-22T10:41:32;6.07;;;5.47;;
1935;SDS011;969;49.892;10.896;2023-06-22T10:43:57;6.77;;;6.20;;
1935;SDS011;969;49.892;10.896;2023-06-22T10:46:26;5.43;;;4.93;;
1935;SDS011;969;49.892;10.896;2023-06-22T10:48:52;6.33;;;5.73;;
1935;SDS011;969;49.892;10.896;2023-06-22T10:51:20;7.20;;;6.60;;
1935;SDS011;969;49.892;10.896;2023-06-22T10:53:45;6.93;;;6.33;;
1935;SDS011;969;49.892;10.896;2023-06-22T10:56:11;6.07;;;5.40;;
1935;SDS011;969;49.892;10.896;2023-06-22T10:58:37;7.37;;;6.70;;
1935;SDS011;969;49.892;10.896;2023-06-22T11:01:02;6.60;;;6.00;;
1935;SDS011;969;49.892;10.896;2023-06-22T11:03:28;5.97;;;5.37;;
1935;SDS011;969;49.892;10.896;2023-06-22T11:05:54;5.80;;;5.27;;
1935;SDS011;969;49.892;10.896;2023-06-22T11:08:19;8.10;;;5.80;;
1935;SDS011;969;49.892;10.896;2023-06-22T11:10:45;5.67;;;5.17;;
1935;SDS011;969;49.892;10.896;2023-06-22T11:13:10;6.37;;;5.77;;
1935;SDS011;969;49.892;10.896;2023-06-22T11:15:36;6.13;;;5.60;;
1935;SDS011;969;49.892;10.896;2023-06-22T11:18:02;6.17;;;5.60;;
1935;SDS011;969;49.892;10.896;2023-06-22T11:20:27;6.50;;;5.90;;
1935;SDS011;969;49.892;10.896;2023-06-22T11:22:53;6.27;;;5.53;;
1935;SDS011;969;49.892;10.896;2023-06-22T11:25:18;6.17;;;5.57;;
1935;SDS011;969;49.892;10.896;2023-06-22T11:27:44;6.40;;;5.80;;
1935;SDS011;969;49.892;10.896;2023-06-22T11:30:10;7.50;;;6.00;;
1935;SDS011;969;49.892;10.896;2023-06-22T11:32:35;6.60;;;5.90;;
1935;SDS011;969;49.892;10.896;2023-06-22T11:35:01;6.07;;;5.57;;
1935;SDS011;969;49.892;10.896;2023-06-22T11:37:26;5.70;;;5.20;;
1935;SDS011;969;49.892;10.896;2023-06-22T11:39:52;6.17;;;5.57;;
1935;SDS011;969;49.892;10.896;2023-06-22T11:42:19;6.50;;;5.87;;
1935;SDS011;969;49.892;10.896;2023-06-22T11:44:45;5.60;;;5.10;;
1935;SDS011;969;49.892;10.896;2023-06-22T11:47:11;5.90;;;5.20;;
1935;SDS011;969;49.892;10.896;2023-06-22T11:49:36;6.43;;;5.50;;
1935;SDS011;969;49.892;10.896;2023-06-22T11:52:02;5.90;;;5.30;;
1935;SDS011;969;49.892;10.896;2023-06-22T11:54:27;7.60;;;6.03;;
1935;SDS011;969;49.892;10.896;2023-06-22T11:56:53;6.50;;;5.80;;
1935;SDS011;969;49.892;10.896;2023-06-22T11:59:19;6.63;;;5.90;;
1935;SDS011;969;49.892;10.896;2023-06-22T12:01:47;7.00;;;6.33;;
1935;SDS011;969;49.892;10.896;2023-06-22T12:04:14;7.73;;;6.17;;
1935;SDS011;969;49.892;10.896;2023-06-22T12:06:39;8.13;;;7.03;;
1935;SDS011;969;49.892;10.896;2023-06-22T12:09:07;12.73;;;6.13;;
1935;SDS011;969;49.892;10.896;2023-06-22T12:11:33;6.83;;;5.73;;
1935;SDS011;969;49.892;10.896;2023-06-22T12:13:58;7.17;;;6.43;;
1935;SDS011;969;49.892;10.896;2023-06-22T12:16:27;6.50;;;5.90;;
1935;SDS011;969;49.892;10.896;2023-06-22T12:18:55;10.00;;;7.00;;
1935;SDS011;969;49.892;10.896;2023-06-22T12:21:21;11.07;;;6.70;;
1935;SDS011;969;49.892;10.896;2023-06-22T12:23:46;7.27;;;6.30;;
1935;SDS011;969;49.892;10.896;2023-06-22T12:26:12;8.23;;;6.70;;
1935;SDS011;969;49.892;10.896;2023-06-22T12:28:37;8.20;;;6.83;;
1935;SDS011;969;49.892;10.896;2023-06-22T12:31:03;9.87;;;5.97;;
1935;SDS011;969;49.892;10.896;2023-06-22T12:33:29;8.90;;;5.83;;
1935;SDS011;969;49.892;10.896;2023-06-22T12:35:55;7.83;;;6.33;;
1935;SDS011;969;49.892;10.896;2023-06-22T12:38:21;7.10;;;6.00;;
1935;SDS011;969;49.892;10.896;2023-06-22T12:40:47;7.80;;;7.10;;
1935;SDS011;969;49.892;10.896;2023-06-22T12:43:14;9.30;;;6.30;;
1935;SDS011;969;49.892;10.896;2023-06-22T12:45:40;8.30;;;7.27;;
1935;SDS011;969;49.892;10.896;2023-06-22T12:48:05;7.50;;;6.40;;
1935;SDS011;969;49.892;10.896;2023-06-22T12:50:31;9.57;;;7.03;;
1935;SDS011;969;49.892;10.896;2023-06-22T12:52:57;8.70;;;6.53;;
1935;SDS011;969;49.892;10.896;2023-06-22T12:55:23;8.13;;;6.80;;
1935;SDS011;969;49.892;10.896;2023-06-22T12:57:48;12.23;;;7.17;;
1935;SDS011;969;49.892;10.896;2023-06-22T13:00:14;6.37;;;5.77;;
1935;SDS011;969;49.892;10.896;2023-06-22T13:02:40;6.60;;;5.80;;
1935;SDS011;969;49.892;10.896;2023-06-22T13:05:05;7.77;;;6.37;;
1935;SDS011;969;49.892;10.896;2023-06-22T13:07:31;8.07;;;6.73;;
1935;SDS011;969;49.892;10.896;2023-06-22T13:09:57;10.17;;;6.30;;
1935;SDS011;969;49.892;10.896;2023-06-22T13:12:22;10.07;;;6.07;;
1935;SDS011;969;49.892;10.896;2023-06-22T13:14:48;8.33;;;7.33;;
1935;SDS011;969;49.892;10.896;2023-06-22T13:17:14;6.97;;;5.80;;
1935;SDS011;969;49.892;10.896;2023-06-22T13:19:40;8.13;;;6.97;;
1935;SDS011;969;49.892;10.896;2023-06-22T13:22:09;7.17;;;6.47;;
1935;SDS011;969;49.892;10.896;2023-06-22T13:24:54;11.00;;;6.03;;
1935;SDS011;969;49.892;10.896;2023-06-22T13:27:20;6.80;;;5.73;;
1935;SDS011;969;49.892;10.896;2023-06-22T13:29:46;8.47;;;6.73;;
1935;SDS011;969;49.892;10.896;2023-06-22T13:32:11;8.67;;;6.73;;
1935;SDS011;969;49.892;10.896;2023-06-22T13:34:37;8.07;;;6.70;;
1935;SDS011;969;49.892;10.896;2023-06-22T13:37:02;8.30;;;6.03;;
1935;SDS011;969;49.892;10.896;2023-06-22T13:39:28;10.30;;;6.60;;
1935;SDS011;969;49.892;10.896;2023-06-22T13:41:54;10.13;;;6.80;;
1935;SDS011;969;49.892;10.896;2023-06-22T13:44:19;12.60;;;6.33;;
1935;SDS011;969;49.892;10.896;2023-06-22T13:46:47;9.70;;;6.53;;
1935;SDS011;969;49.892;10.896;2023-06-22T13:49:12;7.73;;;6.30;;
1935;SDS011;969;49.892;10.896;2023-06-22T13:51:38;13.53;;;7.10;;
1935;SDS011;969;49.892;10.896;2023-06-22T13:54:04;11.13;;;6.53;;
1935;SDS011;969;49.892;10.896;2023-06-22T13:56:29;8.47;;;6.70;;
1935;SDS011;969;49.892;10.896;2023-06-22T13:58:55;8.17;;;6.97;;
1935;SDS011;969;49.892;10.896;2023-06-22T14:01:20;10.50;;;6.57;;
1935;SDS011;969;49.892;10.896;2023-06-22T14:03:47;8.90;;;7.00;;
1935;SDS011;969;49.892;10.896;2023-06-22T14:06:13;8.80;;;7.03;;
1935;SDS011;969;49.892;10.896;2023-06-22T14:08:38;11.87;;;6.63;;
1935;SDS011;969;49.892;10.896;2023-06-22T14:11:04;7.10;;;6.40;;
1935;SDS011;969;49.892;10.896;2023-06-22T14:13:30;7.80;;;7.00;;
1935;SDS011;969;49.892;10.896;2023-06-22T14:15:55;8.60;;;6.60;;
1935;SDS011;969;49.892;10.896;2023-06-22T14:18:21;9.50;;;6.53;;
1935;SDS011;969;49.892;10.896;2023-06-22T14:20:49;9.00;;;7.23;;
1935;SDS011;969;49.892;10.896;2023-06-22T14:23:15;9.63;;;6.50;;
1935;SDS011;969;49.892;10.896;2023-06-22T14:25:40;9.30;;;6.47;;
1935;SDS011;969;49.892;10.896;2023-06-22T14:28:06;7.73;;;5.87;;
1935;SDS011;969;49.892;10.896;2023-06-22T14:30:31;7.97;;;6.10;;
1935;SDS011;969;49.892;10.896;2023-06-22T14:32:57;11.43;;;6.10;;
1935;SDS011;969;49.892;10.896;2023-06-22T14:35:23;7.90;;;6.20;;
1935;SDS011;969;49.892;10.896;2023-06-22T14:37:49;10.20;;;6.33;;
1935;SDS011;969;49.892;10.896;2023-06-22T14:40:15;8.87;;;6.80;;
1935;SDS011;969;49.892;10.896;2023-06-22T14:42:40;7.00;;;5.83;;
1935;SDS011;969;49.892;10.896;2023-06-22T14:45:06;11.60;;;6.77;;
1935;SDS011;969;49.892;10.896;2023-06-22T14:47:32;6.30;;;5.40;;
1935;SDS011;969;49.892;10.896;2023-06-22T14:49:58;10.10;;;6.00;;
1935;SDS011;969;49.892;10.896;2023-06-22T14:52:25;8.20;;;6.70;;
1935;SDS011;969;49.892;10.896;2023-06-22T14:54:51;6.50;;;5.80;;
1935;SDS011;969;49.892;10.896;2023-06-22T14:57:17;9.13;;;6.30;;
1935;SDS011;969;49.892;10.896;2023-06-22T14:59:45;13.83;;;8.27;;
1935;SDS011;969;49.892;10.896;2023-06-22T15:02:11;7.87;;;6.40;;
1935;SDS011;969;49.892;10.896;2023-06-22T15:04:37;8.00;;;6.27;;